sensor_id;sensor_type;location;lat;lon;timestamp;P1;durP1;ratioP1;P2;durP2;ratioP2
20870;SDS011;10595;51.218;3.452;2022-08-18T00:00:19;39.33;;;31.90;;
20870;SDS011;10595;51.218;3.452;2022-08-18T00:01:11;45.60;;;32.83;;
20870;SDS011;10595;51.218;3.452;2022-08-18T00:02:04;43.30;;;33.27;;
20870;SDS011;10595;51.218;3.452;2022-08-18T00:02:57;39.47;;;32.93;;
20870;SDS011;10595;51.218;3.452;2022-08-18T00:03:48;48.67;;;35.20;;
20870;SDS011;10595;51.218;3.452;2022-08-18T00:04:41;44.37;;;34.13;;
20870;SDS011;10595;51.218;3.452;2022-08-18T00:05:31;41.67;;;33.60;;
20870;SDS011;10595;51.218;3.452;2022-08-18T00:06:25;41.20;;;32.50;;
20870;SDS011;10595;51.218;3.452;2022-08-18T00:07:17;38.73;;;31.07;;
20870;SDS011;10595;51.218;3.452;2022-08-18T00:08:09;35.67;;;27.77;;
20870;SDS011;10595;51.218;3.452;2022-08-18T00:09:02;32.67;;;26.43;;
20870;SDS011;10595;51.218;3.452;2022-08-18T00:09:54;33.87;;;25.57;;
20870;SDS011;10595;51.218;3.452;2022-08-18T00:10:47;36.87;;;30.37;;
20870;SDS011;10595;51.218;3.452;2022-08-18T00:11:41;41.40;;;31.80;;
20870;SDS011;10595;51.218;3.452;2022-08-18T00:12:33;36.23;;;29.57;;
20870;SDS011;10595;51.218;3.452;2022-08-18T00:13:25;36.43;;;29.30;;
20870;SDS011;10595;51.218;3.452;2022-08-18T00:14:17;37.60;;;30.63;;
20870;SDS011;10595;51.218;3.452;2022-08-18T00:15:10;34.50;;;28.30;;
20870;SDS011;10595;51.218;3.452;2022-08-18T00:16:03;36.13;;;28.70;;
20870;SDS011;10595;51.218;3.452;2022-08-18T00:16:55;34.00;;;26.90;;
20870;SDS011;10595;51.218;3.452;2022-08-18T00:17:46;34.73;;;27.33;;
20870;SDS011;10595;51.218;3.452;2022-08-18T00:18:37;35.63;;;29.30;;
20870;SDS011;10595;51.218;3.452;2022-08-18T00:19:28;37.53;;;30.33;;
20870;SDS011;10595;51.218;3.452;2022-08-18T00:20:21;38.60;;;31.07;;
20870;SDS011;10595;51.218;3.452;2022-08-18T00:21:12;39.67;;;32.60;;
20870;SDS011;10595;51.218;3.452;2022-08-18T00:22:02;40.13;;;31.23;;
20870;SDS011;10595;51.218;3.452;2022-08-18T00:22:54;37.67;;;29.93;;
20870;SDS011;10595;51.218;3.452;2022-08-18T00:23:46;40.77;;;31.70;;
20870;SDS011;10595;51.218;3.452;2022-08-18T00:24:38;39.50;;;31.60;;
20870;SDS011;10595;51.218;3.452;2022-08-18T00:25:29;41.00;;;31.83;;
20870;SDS011;10595;51.218;3.452;2022-08-18T00:26:21;39.90;;;30.70;;
20870;SDS011;10595;51.218;3.452;2022-08-18T00:27:12;38.90;;;32.17;;
20870;SDS011;10595;51.218;3.452;2022-08-18T00:28:05;40.60;;;31.83;;
20870;SDS011;10595;51.218;3.452;2022-08-18T00:28:56;40.47;;;32.70;;
20870;SDS011;10595;51.218;3.452;2022-08-18T00:29:48;36.77;;;29.27;;
20870;SDS011;10595;51.218;3.452;2022-08-18T00:30:39;39.37;;;32.13;;
20870;SDS011;10595;51.218;3.452;2022-08-18T00:31:32;45.47;;;34.57;;
20870;SDS011;10595;51.218;3.452;2022-08-18T00:32:24;47.47;;;36.13;;
20870;SDS011;10595;51.218;3.452;2022-08-18T00:33:17;42.47;;;34.60;;
20870;SDS011;10595;51.218;3.452;2022-08-18T00:34:07;43.97;;;34.33;;
20870;SDS011;10595;51.218;3.452;2022-08-18T00:35:03;44.33;;;33.63;;
20870;SDS011;10595;51.218;3.452;2022-08-18T00:35:55;50.07;;;36.87;;
20870;SDS011;10595;51.218;3.452;2022-08-18T00:36:47;54.33;;;37.47;;
20870;SDS011;10595;51.218;3.452;2022-08-18T00:37:58;47.67;;;37.70;;
20870;SDS011;10595;51.218;3.452;2022-08-18T00:38:50;48.27;;;37.53;;
20870;SDS011;10595;51.218;3.452;2022-08-18T00:39:41;50.03;;;37.97;;
20870;SDS011;10595;51.218;3.452;2022-08-18T00:40:36;43.63;;;35.37;;
20870;SDS011;10595;51.218;3.452;2022-08-18T00:41:27;48.20;;;36.27;;
20870;SDS011;10595;51.218;3.452;2022-08-18T00:42:21;42.20;;;32.37;;
20870;SDS011;10595;51.218;3.452;2022-08-18T00:43:15;44.23;;;33.83;;
20870;SDS011;10595;51.218;3.452;2022-08-18T00:44:08;44.03;;;34.70;;
20870;SDS011;10595;51.218;3.452;2022-08-18T00:45:00;45.63;;;36.10;;
20870;SDS011;10595;51.218;3.452;2022-08-18T00:45:51;43.37;;;34.67;;
20870;SDS011;10595;51.218;3.452;2022-08-18T00:46:44;46.20;;;36.33;;
20870;SDS011;10595;51.218;3.452;2022-08-18T00:47:36;52.03;;;38.27;;
20870;SDS011;10595;51.218;3.452;2022-08-18T00:48:27;49.63;;;36.90;;
20870;SDS011;10595;51.218;3.452;2022-08-18T00:49:18;47.47;;;35.33;;
20870;SDS011;10595;51.218;3.452;2022-08-18T00:50:10;44.40;;;34.90;;
20870;SDS011;10595;51.218;3.452;2022-08-18T00:51:03;46.73;;;34.97;;
20870;SDS011;10595;51.218;3.452;2022-08-18T00:51:56;43.23;;;34.43;;
20870;SDS011;10595;51.218;3.452;2022-08-18T00:52:49;45.13;;;34.30;;
20870;SDS011;10595;51.218;3.452;2022-08-18T00:53:43;41.17;;;32.80;;
20870;SDS011;10595;51.218;3.452;2022-08-18T00:54:36;40.00;;;31.80;;
20870;SDS011;10595;51.218;3.452;2022-08-18T00:55:30;41.70;;;32.03;;
20870;SDS011;10595;51.218;3.452;2022-08-18T00:56:22;45.03;;;33.17;;
20870;SDS011;10595;51.218;3.452;2022-08-18T00:57:15;36.53;;;30.90;;
20870;SDS011;10595;51.218;3.452;2022-08-18T00:58:10;37.97;;;29.40;;
20870;SDS011;10595;51.218;3.452;2022-08-18T00:59:05;38.43;;;31.20;;
20870;SDS011;10595;51.218;3.452;2022-08-18T00:59:58;45.63;;;32.53;;
20870;SDS011;10595;51.218;3.452;2022-08-18T01:00:56;38.63;;;29.53;;
20870;SDS011;10595;51.218;3.452;2022-08-18T01:01:49;40.03;;;30.87;;
20870;SDS011;10595;51.218;3.452;2022-08-18T01:02:44;42.20;;;32.07;;
20870;SDS011;10595;51.218;3.452;2022-08-18T01:03:35;38.40;;;30.90;;
20870;SDS011;10595;51.218;3.452;2022-08-18T01:04:30;37.47;;;31.10;;
20870;SDS011;10595;51.218;3.452;2022-08-18T01:05:23;41.40;;;30.77;;
20870;SDS011;10595;51.218;3.452;2022-08-18T01:06:17;39.00;;;31.70;;
20870;SDS011;10595;51.218;3.452;2022-08-18T01:07:12;40.80;;;31.03;;
20870;SDS011;10595;51.218;3.452;2022-08-18T01:08:08;43.87;;;31.43;;
20870;SDS011;10595;51.218;3.452;2022-08-18T01:09:03;38.57;;;31.60;;
20870;SDS011;10595;51.218;3.452;2022-08-18T01:09:56;39.80;;;31.17;;
20870;SDS011;10595;51.218;3.452;2022-08-18T01:10:49;37.97;;;30.87;;
20870;SDS011;10595;51.218;3.452;2022-08-18T01:11:41;37.70;;;31.43;;
20870;SDS011;10595;51.218;3.452;2022-08-18T01:12:32;41.40;;;31.60;;
20870;SDS011;10595;51.218;3.452;2022-08-18T01:13:24;36.93;;;31.13;;
20870;SDS011;10595;51.218;3.452;2022-08-18T01:14:16;37.93;;;31.37;;
20870;SDS011;10595;51.218;3.452;2022-08-18T01:15:08;38.23;;;31.37;;
20870;SDS011;10595;51.218;3.452;2022-08-18T01:15:59;36.97;;;29.40;;
20870;SDS011;10595;51.218;3.452;2022-08-18T01:17:13;36.80;;;30.30;;
20870;SDS011;10595;51.218;3.452;2022-08-18T01:18:22;37.80;;;30.03;;
20870;SDS011;10595;51.218;3.452;2022-08-18T01:19:31;39.30;;;31.27;;
20870;SDS011;10595;51.218;3.452;2022-08-18T01:20:42;43.87;;;32.97;;
20870;SDS011;10595;51.218;3.452;2022-08-18T01:21:51;47.23;;;33.63;;
20870;SDS011;10595;51.218;3.452;2022-08-18T01:22:50;36.60;;;29.60;;
20870;SDS011;10595;51.218;3.452;2022-08-18T01:23:44;38.27;;;31.43;;
20870;SDS011;10595;51.218;3.452;2022-08-18T01:24:37;39.77;;;31.17;;
20870;SDS011;10595;51.218;3.452;2022-08-18T01:25:47;42.80;;;33.43;;
20870;SDS011;10595;51.218;3.452;2022-08-18T01:26:50;39.77;;;31.47;;
20870;SDS011;10595;51.218;3.452;2022-08-18T01:27:41;45.40;;;35.13;;
20870;SDS011;10595;51.218;3.452;2022-08-18T01:28:35;37.87;;;31.40;;
20870;SDS011;10595;51.218;3.452;2022-08-18T01:29:25;46.03;;;35.67;;
20870;SDS011;10595;51.218;3.452;2022-08-18T01:30:17;48.10;;;35.00;;
20870;SDS011;10595;51.218;3.452;2022-08-18T01:31:27;44.03;;;34.50;;
20870;SDS011;10595;51.218;3.452;2022-08-18T01:32:21;51.67;;;37.37;;
20870;SDS011;10595;51.218;3.452;2022-08-18T01:33:12;44.30;;;33.07;;
20870;SDS011;10595;51.218;3.452;2022-08-18T01:34:03;40.97;;;33.60;;
20870;SDS011;10595;51.218;3.452;2022-08-18T01:34:55;41.67;;;32.33;;
20870;SDS011;10595;51.218;3.452;2022-08-18T01:35:47;40.63;;;32.03;;
20870;SDS011;10595;51.218;3.452;2022-08-18T01:36:39;39.83;;;31.77;;
20870;SDS011;10595;51.218;3.452;2022-08-18T01:37:30;39.70;;;32.93;;
20870;SDS011;10595;51.218;3.452;2022-08-18T01:38:24;38.83;;;30.77;;
20870;SDS011;10595;51.218;3.452;2022-08-18T01:39:15;37.33;;;29.27;;
20870;SDS011;10595;51.218;3.452;2022-08-18T01:40:09;29.20;;;23.93;;
20870;SDS011;10595;51.218;3.452;2022-08-18T01:41:00;29.93;;;23.37;;
20870;SDS011;10595;51.218;3.452;2022-08-18T01:41:53;26.23;;;22.67;;
20870;SDS011;10595;51.218;3.452;2022-08-18T01:42:43;27.10;;;22.83;;
20870;SDS011;10595;51.218;3.452;2022-08-18T01:43:36;24.97;;;21.20;;
20870;SDS011;10595;51.218;3.452;2022-08-18T01:44:29;26.03;;;21.27;;
20870;SDS011;10595;51.218;3.452;2022-08-18T01:45:20;28.17;;;22.30;;
20870;SDS011;10595;51.218;3.452;2022-08-18T01:46:12;26.33;;;21.10;;
20870;SDS011;10595;51.218;3.452;2022-08-18T01:47:04;26.67;;;20.27;;
20870;SDS011;10595;51.218;3.452;2022-08-18T01:47:56;24.63;;;21.37;;
20870;SDS011;10595;51.218;3.452;2022-08-18T01:48:49;26.80;;;22.20;;
20870;SDS011;10595;51.218;3.452;2022-08-18T01:49:41;27.43;;;22.70;;
20870;SDS011;10595;51.218;3.452;2022-08-18T01:50:33;29.43;;;23.63;;
20870;SDS011;10595;51.218;3.452;2022-08-18T01:51:24;28.13;;;22.63;;
20870;SDS011;10595;51.218;3.452;2022-08-18T01:52:16;41.10;;;31.90;;
20870;SDS011;10595;51.218;3.452;2022-08-18T01:53:09;46.57;;;34.80;;
20870;SDS011;10595;51.218;3.452;2022-08-18T01:54:03;43.23;;;33.33;;
20870;SDS011;10595;51.218;3.452;2022-08-18T01:54:54;52.17;;;37.43;;
20870;SDS011;10595;51.218;3.452;2022-08-18T01:55:47;49.63;;;36.77;;
20870;SDS011;10595;51.218;3.452;2022-08-18T01:56:38;53.67;;;39.17;;
20870;SDS011;10595;51.218;3.452;2022-08-18T01:57:31;52.87;;;36.93;;
20870;SDS011;10595;51.218;3.452;2022-08-18T01:58:22;53.43;;;37.33;;
20870;SDS011;10595;51.218;3.452;2022-08-18T01:59:17;48.97;;;37.83;;
20870;SDS011;10595;51.218;3.452;2022-08-18T02:00:09;51.67;;;39.83;;
20870;SDS011;10595;51.218;3.452;2022-08-18T02:01:00;55.33;;;39.27;;
20870;SDS011;10595;51.218;3.452;2022-08-18T02:01:52;59.20;;;40.20;;
20870;SDS011;10595;51.218;3.452;2022-08-18T02:02:44;51.67;;;39.13;;
20870;SDS011;10595;51.218;3.452;2022-08-18T02:03:39;52.30;;;39.57;;
20870;SDS011;10595;51.218;3.452;2022-08-18T02:04:31;56.57;;;40.50;;
20870;SDS011;10595;51.218;3.452;2022-08-18T02:05:26;50.43;;;37.50;;
20870;SDS011;10595;51.218;3.452;2022-08-18T02:06:18;51.67;;;39.33;;
20870;SDS011;10595;51.218;3.452;2022-08-18T02:07:10;57.50;;;40.33;;
20870;SDS011;10595;51.218;3.452;2022-08-18T02:08:02;48.60;;;37.13;;
20870;SDS011;10595;51.218;3.452;2022-08-18T02:08:54;49.70;;;37.20;;
20870;SDS011;10595;51.218;3.452;2022-08-18T02:09:47;47.93;;;35.53;;
20870;SDS011;10595;51.218;3.452;2022-08-18T02:10:40;43.50;;;33.93;;
20870;SDS011;10595;51.218;3.452;2022-08-18T02:11:31;41.87;;;33.90;;
20870;SDS011;10595;51.218;3.452;2022-08-18T02:12:22;43.47;;;32.63;;
20870;SDS011;10595;51.218;3.452;2022-08-18T02:13:14;34.37;;;28.77;;
20870;SDS011;10595;51.218;3.452;2022-08-18T02:14:05;32.97;;;26.73;;
20870;SDS011;10595;51.218;3.452;2022-08-18T02:14:57;28.37;;;24.23;;
20870;SDS011;10595;51.218;3.452;2022-08-18T02:15:48;28.30;;;23.37;;
20870;SDS011;10595;51.218;3.452;2022-08-18T02:16:40;28.43;;;23.93;;
20870;SDS011;10595;51.218;3.452;2022-08-18T02:17:35;26.10;;;21.53;;
20870;SDS011;10595;51.218;3.452;2022-08-18T02:18:29;26.37;;;23.47;;
20870;SDS011;10595;51.218;3.452;2022-08-18T02:19:20;25.03;;;22.33;;
20870;SDS011;10595;51.218;3.452;2022-08-18T02:20:13;29.93;;;23.13;;
20870;SDS011;10595;51.218;3.452;2022-08-18T02:21:05;28.57;;;24.03;;
20870;SDS011;10595;51.218;3.452;2022-08-18T02:21:57;27.63;;;23.77;;
20870;SDS011;10595;51.218;3.452;2022-08-18T02:22:50;30.87;;;25.20;;
20870;SDS011;10595;51.218;3.452;2022-08-18T02:23:43;28.33;;;23.70;;
20870;SDS011;10595;51.218;3.452;2022-08-18T02:24:36;26.53;;;23.63;;
20870;SDS011;10595;51.218;3.452;2022-08-18T02:25:28;36.97;;;29.80;;
20870;SDS011;10595;51.218;3.452;2022-08-18T02:26:20;37.70;;;29.37;;
20870;SDS011;10595;51.218;3.452;2022-08-18T02:27:11;35.10;;;27.43;;
20870;SDS011;10595;51.218;3.452;2022-08-18T02:28:04;32.47;;;25.97;;
20870;SDS011;10595;51.218;3.452;2022-08-18T02:28:55;31.43;;;25.83;;
20870;SDS011;10595;51.218;3.452;2022-08-18T02:29:47;31.40;;;26.67;;
20870;SDS011;10595;51.218;3.452;2022-08-18T02:30:37;32.30;;;26.27;;
20870;SDS011;10595;51.218;3.452;2022-08-18T02:31:29;32.30;;;25.57;;
20870;SDS011;10595;51.218;3.452;2022-08-18T02:32:20;31.67;;;26.40;;
20870;SDS011;10595;51.218;3.452;2022-08-18T02:33:11;30.73;;;25.93;;
20870;SDS011;10595;51.218;3.452;2022-08-18T02:34:02;34.57;;;27.03;;
20870;SDS011;10595;51.218;3.452;2022-08-18T02:34:54;32.00;;;25.73;;
20870;SDS011;10595;51.218;3.452;2022-08-18T02:35:50;27.77;;;22.00;;
20870;SDS011;10595;51.218;3.452;2022-08-18T02:36:41;29.70;;;22.20;;
20870;SDS011;10595;51.218;3.452;2022-08-18T02:37:32;25.20;;;21.00;;
20870;SDS011;10595;51.218;3.452;2022-08-18T02:38:23;23.13;;;19.97;;
20870;SDS011;10595;51.218;3.452;2022-08-18T02:39:14;22.23;;;19.83;;
20870;SDS011;10595;51.218;3.452;2022-08-18T02:40:07;23.67;;;20.33;;
20870;SDS011;10595;51.218;3.452;2022-08-18T02:41:01;26.17;;;21.23;;
20870;SDS011;10595;51.218;3.452;2022-08-18T02:41:53;22.67;;;20.03;;
20870;SDS011;10595;51.218;3.452;2022-08-18T02:42:44;23.57;;;20.03;;
20870;SDS011;10595;51.218;3.452;2022-08-18T02:43:36;26.70;;;21.30;;
20870;SDS011;10595;51.218;3.452;2022-08-18T02:44:27;25.10;;;20.23;;
20870;SDS011;10595;51.218;3.452;2022-08-18T02:45:21;23.30;;;18.67;;
20870;SDS011;10595;51.218;3.452;2022-08-18T02:46:13;22.83;;;19.67;;
20870;SDS011;10595;51.218;3.452;2022-08-18T02:47:03;23.07;;;19.90;;
20870;SDS011;10595;51.218;3.452;2022-08-18T02:47:55;22.03;;;19.40;;
20870;SDS011;10595;51.218;3.452;2022-08-18T02:48:46;27.00;;;23.53;;
20870;SDS011;10595;51.218;3.452;2022-08-18T02:49:38;32.73;;;26.77;;
20870;SDS011;10595;51.218;3.452;2022-08-18T02:50:29;31.53;;;25.47;;
20870;SDS011;10595;51.218;3.452;2022-08-18T02:51:20;28.57;;;24.27;;
20870;SDS011;10595;51.218;3.452;2022-08-18T02:52:11;27.20;;;22.37;;
20870;SDS011;10595;51.218;3.452;2022-08-18T02:53:02;38.63;;;28.17;;
20870;SDS011;10595;51.218;3.452;2022-08-18T02:53:53;36.87;;;29.90;;
20870;SDS011;10595;51.218;3.452;2022-08-18T02:54:48;36.33;;;27.83;;
20870;SDS011;10595;51.218;3.452;2022-08-18T02:55:38;34.60;;;27.20;;
20870;SDS011;10595;51.218;3.452;2022-08-18T02:56:32;29.00;;;25.63;;
20870;SDS011;10595;51.218;3.452;2022-08-18T02:57:23;30.37;;;25.30;;
20870;SDS011;10595;51.218;3.452;2022-08-18T02:58:15;27.37;;;23.73;;
20870;SDS011;10595;51.218;3.452;2022-08-18T02:59:06;32.33;;;25.23;;
20870;SDS011;10595;51.218;3.452;2022-08-18T02:59:58;29.90;;;22.77;;
20870;SDS011;10595;51.218;3.452;2022-08-18T03:00:50;29.20;;;22.97;;
20870;SDS011;10595;51.218;3.452;2022-08-18T03:01:41;28.40;;;23.37;;
20870;SDS011;10595;51.218;3.452;2022-08-18T03:02:33;29.50;;;24.17;;
20870;SDS011;10595;51.218;3.452;2022-08-18T03:03:23;26.63;;;23.50;;
20870;SDS011;10595;51.218;3.452;2022-08-18T03:04:16;29.40;;;23.47;;
20870;SDS011;10595;51.218;3.452;2022-08-18T03:05:08;29.63;;;23.67;;
20870;SDS011;10595;51.218;3.452;2022-08-18T03:06:00;27.97;;;22.63;;
20870;SDS011;10595;51.218;3.452;2022-08-18T03:06:50;27.70;;;22.90;;
20870;SDS011;10595;51.218;3.452;2022-08-18T03:07:42;29.47;;;22.90;;
20870;SDS011;10595;51.218;3.452;2022-08-18T03:08:33;25.73;;;20.63;;
20870;SDS011;10595;51.218;3.452;2022-08-18T03:09:25;23.50;;;21.00;;
20870;SDS011;10595;51.218;3.452;2022-08-18T03:10:16;22.73;;;19.97;;
20870;SDS011;10595;51.218;3.452;2022-08-18T03:11:07;29.73;;;22.90;;
20870;SDS011;10595;51.218;3.452;2022-08-18T03:12:00;30.73;;;23.40;;
20870;SDS011;10595;51.218;3.452;2022-08-18T03:12:53;29.03;;;22.63;;
20870;SDS011;10595;51.218;3.452;2022-08-18T03:13:43;27.70;;;23.13;;
20870;SDS011;10595;51.218;3.452;2022-08-18T03:14:36;25.77;;;22.40;;
20870;SDS011;10595;51.218;3.452;2022-08-18T03:15:26;28.53;;;23.33;;
20870;SDS011;10595;51.218;3.452;2022-08-18T03:16:19;27.40;;;23.03;;
20870;SDS011;10595;51.218;3.452;2022-08-18T03:17:11;29.07;;;24.07;;
20870;SDS011;10595;51.218;3.452;2022-08-18T03:18:04;27.23;;;23.00;;
20870;SDS011;10595;51.218;3.452;2022-08-18T03:18:55;25.43;;;21.33;;
20870;SDS011;10595;51.218;3.452;2022-08-18T03:19:46;26.07;;;20.93;;
20870;SDS011;10595;51.218;3.452;2022-08-18T03:20:37;21.40;;;18.47;;
20870;SDS011;10595;51.218;3.452;2022-08-18T03:21:29;22.67;;;18.40;;
20870;SDS011;10595;51.218;3.452;2022-08-18T03:22:20;19.77;;;17.50;;
20870;SDS011;10595;51.218;3.452;2022-08-18T03:23:12;24.60;;;19.03;;
20870;SDS011;10595;51.218;3.452;2022-08-18T03:24:03;26.60;;;22.97;;
20870;SDS011;10595;51.218;3.452;2022-08-18T03:24:55;29.13;;;23.77;;
20870;SDS011;10595;51.218;3.452;2022-08-18T03:25:47;34.33;;;24.53;;
20870;SDS011;10595;51.218;3.452;2022-08-18T03:26:40;28.67;;;23.73;;
20870;SDS011;10595;51.218;3.452;2022-08-18T03:27:32;30.57;;;25.20;;
20870;SDS011;10595;51.218;3.452;2022-08-18T03:28:24;36.53;;;28.60;;
20870;SDS011;10595;51.218;3.452;2022-08-18T03:29:14;38.97;;;29.03;;
20870;SDS011;10595;51.218;3.452;2022-08-18T03:30:06;37.30;;;28.20;;
20870;SDS011;10595;51.218;3.452;2022-08-18T03:30:57;43.43;;;30.67;;
20870;SDS011;10595;51.218;3.452;2022-08-18T03:31:49;40.90;;;31.77;;
20870;SDS011;10595;51.218;3.452;2022-08-18T03:32:39;44.77;;;33.60;;
20870;SDS011;10595;51.218;3.452;2022-08-18T03:33:31;49.60;;;35.03;;
20870;SDS011;10595;51.218;3.452;2022-08-18T03:34:21;53.13;;;36.43;;
20870;SDS011;10595;51.218;3.452;2022-08-18T03:35:13;49.87;;;34.40;;
20870;SDS011;10595;51.218;3.452;2022-08-18T03:36:04;43.17;;;32.53;;
20870;SDS011;10595;51.218;3.452;2022-08-18T03:36:55;44.97;;;32.57;;
20870;SDS011;10595;51.218;3.452;2022-08-18T03:37:47;44.10;;;32.83;;
20870;SDS011;10595;51.218;3.452;2022-08-18T03:38:37;46.63;;;33.87;;
20870;SDS011;10595;51.218;3.452;2022-08-18T03:39:29;48.00;;;35.03;;
20870;SDS011;10595;51.218;3.452;2022-08-18T03:40:19;51.40;;;35.30;;
20870;SDS011;10595;51.218;3.452;2022-08-18T03:41:12;44.90;;;33.93;;
20870;SDS011;10595;51.218;3.452;2022-08-18T03:42:03;41.00;;;31.43;;
20870;SDS011;10595;51.218;3.452;2022-08-18T03:42:55;39.10;;;30.90;;
20870;SDS011;10595;51.218;3.452;2022-08-18T03:43:46;39.47;;;31.03;;
20870;SDS011;10595;51.218;3.452;2022-08-18T03:44:36;39.63;;;30.43;;
20870;SDS011;10595;51.218;3.452;2022-08-18T03:45:28;37.13;;;29.83;;
20870;SDS011;10595;51.218;3.452;2022-08-18T03:46:23;34.67;;;28.70;;
20870;SDS011;10595;51.218;3.452;2022-08-18T03:47:15;40.20;;;30.03;;
20870;SDS011;10595;51.218;3.452;2022-08-18T03:48:07;35.87;;;28.33;;
20870;SDS011;10595;51.218;3.452;2022-08-18T03:49:00;35.93;;;29.27;;
20870;SDS011;10595;51.218;3.452;2022-08-18T03:49:51;38.47;;;28.57;;
20870;SDS011;10595;51.218;3.452;2022-08-18T03:50:42;39.87;;;28.87;;
20870;SDS011;10595;51.218;3.452;2022-08-18T03:51:35;34.17;;;28.20;;
20870;SDS011;10595;51.218;3.452;2022-08-18T03:52:27;34.63;;;27.73;;
20870;SDS011;10595;51.218;3.452;2022-08-18T03:53:17;29.80;;;25.87;;
20870;SDS011;10595;51.218;3.452;2022-08-18T03:54:09;28.17;;;23.27;;
20870;SDS011;10595;51.218;3.452;2022-08-18T03:55:00;25.93;;;21.57;;
20870;SDS011;10595;51.218;3.452;2022-08-18T03:55:51;26.77;;;23.13;;
20870;SDS011;10595;51.218;3.452;2022-08-18T03:56:42;33.37;;;24.70;;
20870;SDS011;10595;51.218;3.452;2022-08-18T03:57:34;38.70;;;28.53;;
20870;SDS011;10595;51.218;3.452;2022-08-18T03:58:26;32.13;;;26.83;;
20870;SDS011;10595;51.218;3.452;2022-08-18T03:59:19;28.97;;;24.33;;
20870;SDS011;10595;51.218;3.452;2022-08-18T04:00:10;35.17;;;28.07;;
20870;SDS011;10595;51.218;3.452;2022-08-18T04:01:02;34.57;;;27.13;;
20870;SDS011;10595;51.218;3.452;2022-08-18T04:01:52;31.10;;;25.60;;
20870;SDS011;10595;51.218;3.452;2022-08-18T04:02:44;32.13;;;25.97;;
20870;SDS011;10595;51.218;3.452;2022-08-18T04:03:36;35.53;;;27.07;;
20870;SDS011;10595;51.218;3.452;2022-08-18T04:04:29;32.00;;;25.87;;
20870;SDS011;10595;51.218;3.452;2022-08-18T04:05:19;33.03;;;27.47;;
20870;SDS011;10595;51.218;3.452;2022-08-18T04:06:13;32.10;;;25.27;;
20870;SDS011;10595;51.218;3.452;2022-08-18T04:07:06;31.03;;;25.77;;
20870;SDS011;10595;51.218;3.452;2022-08-18T04:07:59;34.47;;;26.30;;
20870;SDS011;10595;51.218;3.452;2022-08-18T04:08:49;30.97;;;25.20;;
20870;SDS011;10595;51.218;3.452;2022-08-18T04:09:40;29.17;;;22.37;;
20870;SDS011;10595;51.218;3.452;2022-08-18T04:10:32;24.73;;;21.40;;
20870;SDS011;10595;51.218;3.452;2022-08-18T04:11:23;25.63;;;21.87;;
20870;SDS011;10595;51.218;3.452;2022-08-18T04:12:14;24.73;;;20.77;;
20870;SDS011;10595;51.218;3.452;2022-08-18T04:13:06;27.87;;;23.03;;
20870;SDS011;10595;51.218;3.452;2022-08-18T04:13:58;25.17;;;22.17;;
20870;SDS011;10595;51.218;3.452;2022-08-18T04:14:50;28.07;;;22.37;;
20870;SDS011;10595;51.218;3.452;2022-08-18T04:15:40;26.33;;;21.63;;
20870;SDS011;10595;51.218;3.452;2022-08-18T04:16:32;26.70;;;21.50;;
20870;SDS011;10595;51.218;3.452;2022-08-18T04:17:24;27.37;;;21.60;;
20870;SDS011;10595;51.218;3.452;2022-08-18T04:18:15;25.47;;;22.33;;
20870;SDS011;10595;51.218;3.452;2022-08-18T04:19:07;28.70;;;23.93;;
20870;SDS011;10595;51.218;3.452;2022-08-18T04:19:57;30.43;;;25.43;;
20870;SDS011;10595;51.218;3.452;2022-08-18T04:20:49;33.30;;;25.57;;
20870;SDS011;10595;51.218;3.452;2022-08-18T04:21:40;37.10;;;28.27;;
20870;SDS011;10595;51.218;3.452;2022-08-18T04:22:31;36.53;;;26.80;;
20870;SDS011;10595;51.218;3.452;2022-08-18T04:23:23;32.43;;;24.43;;
20870;SDS011;10595;51.218;3.452;2022-08-18T04:24:14;28.83;;;25.00;;
20870;SDS011;10595;51.218;3.452;2022-08-18T04:25:05;30.87;;;24.87;;
20870;SDS011;10595;51.218;3.452;2022-08-18T04:25:58;31.17;;;25.37;;
20870;SDS011;10595;51.218;3.452;2022-08-18T04:26:49;31.63;;;24.97;;
20870;SDS011;10595;51.218;3.452;2022-08-18T04:27:41;25.83;;;22.47;;
20870;SDS011;10595;51.218;3.452;2022-08-18T04:28:33;29.43;;;25.33;;
20870;SDS011;10595;51.218;3.452;2022-08-18T04:29:25;30.80;;;25.10;;
20870;SDS011;10595;51.218;3.452;2022-08-18T04:30:17;28.30;;;24.50;;
20870;SDS011;10595;51.218;3.452;2022-08-18T04:31:09;28.03;;;24.13;;
20870;SDS011;10595;51.218;3.452;2022-08-18T04:32:01;30.13;;;25.20;;
20870;SDS011;10595;51.218;3.452;2022-08-18T04:32:54;27.40;;;23.70;;
20870;SDS011;10595;51.218;3.452;2022-08-18T04:33:46;27.87;;;23.60;;
20870;SDS011;10595;51.218;3.452;2022-08-18T04:34:37;29.30;;;23.10;;
20870;SDS011;10595;51.218;3.452;2022-08-18T04:35:29;28.20;;;23.93;;
20870;SDS011;10595;51.218;3.452;2022-08-18T04:36:20;29.57;;;24.43;;
20870;SDS011;10595;51.218;3.452;2022-08-18T04:37:11;27.90;;;24.00;;
20870;SDS011;10595;51.218;3.452;2022-08-18T04:38:03;28.10;;;22.43;;
20870;SDS011;10595;51.218;3.452;2022-08-18T04:38:53;27.60;;;23.43;;
20870;SDS011;10595;51.218;3.452;2022-08-18T04:39:45;27.53;;;24.00;;
20870;SDS011;10595;51.218;3.452;2022-08-18T04:40:35;30.70;;;25.83;;
20870;SDS011;10595;51.218;3.452;2022-08-18T04:41:27;30.47;;;24.50;;
20870;SDS011;10595;51.218;3.452;2022-08-18T04:42:18;32.37;;;26.20;;
20870;SDS011;10595;51.218;3.452;2022-08-18T04:43:10;32.37;;;25.87;;
20870;SDS011;10595;51.218;3.452;2022-08-18T04:44:06;31.63;;;26.90;;
20870;SDS011;10595;51.218;3.452;2022-08-18T04:44:59;30.70;;;25.80;;
20870;SDS011;10595;51.218;3.452;2022-08-18T04:45:50;30.97;;;25.60;;
20870;SDS011;10595;51.218;3.452;2022-08-18T04:46:42;31.00;;;25.67;;
20870;SDS011;10595;51.218;3.452;2022-08-18T04:47:33;34.97;;;26.27;;
20870;SDS011;10595;51.218;3.452;2022-08-18T04:48:25;31.90;;;26.57;;
20870;SDS011;10595;51.218;3.452;2022-08-18T04:49:15;32.53;;;25.77;;
20870;SDS011;10595;51.218;3.452;2022-08-18T04:50:08;40.10;;;28.23;;
20870;SDS011;10595;51.218;3.452;2022-08-18T04:51:03;36.87;;;29.57;;
20870;SDS011;10595;51.218;3.452;2022-08-18T04:51:54;35.27;;;28.70;;
20870;SDS011;10595;51.218;3.452;2022-08-18T04:53:04;33.13;;;25.87;;
20870;SDS011;10595;51.218;3.452;2022-08-18T04:54:13;31.03;;;25.87;;
20870;SDS011;10595;51.218;3.452;2022-08-18T04:55:05;31.47;;;26.40;;
20870;SDS011;10595;51.218;3.452;2022-08-18T04:55:56;29.83;;;24.83;;
20870;SDS011;10595;51.218;3.452;2022-08-18T04:56:49;30.60;;;23.97;;
20870;SDS011;10595;51.218;3.452;2022-08-18T04:57:40;29.40;;;23.70;;
20870;SDS011;10595;51.218;3.452;2022-08-18T04:58:32;24.43;;;20.17;;
20870;SDS011;10595;51.218;3.452;2022-08-18T04:59:25;22.73;;;20.20;;
20870;SDS011;10595;51.218;3.452;2022-08-18T05:00:20;21.53;;;19.30;;
20870;SDS011;10595;51.218;3.452;2022-08-18T05:01:11;23.17;;;19.07;;
20870;SDS011;10595;51.218;3.452;2022-08-18T05:02:04;21.00;;;18.80;;
20870;SDS011;10595;51.218;3.452;2022-08-18T05:02:57;21.63;;;19.23;;
20870;SDS011;10595;51.218;3.452;2022-08-18T05:03:49;21.47;;;19.00;;
20870;SDS011;10595;51.218;3.452;2022-08-18T05:04:41;21.00;;;18.40;;
20870;SDS011;10595;51.218;3.452;2022-08-18T05:05:36;23.43;;;19.67;;
20870;SDS011;10595;51.218;3.452;2022-08-18T05:06:27;22.57;;;20.03;;
20870;SDS011;10595;51.218;3.452;2022-08-18T05:07:19;22.30;;;19.90;;